Time;durP1;ratioP1;P1;durP2;ratioP2;P2;SDS_P1;SDS_P2;PMS_P1;PMS_P2;Temp;Humidity;BMP_temperature;BMP_pressure;BME280_temperature;BME280_humidity;BME280_pressure;Samples;Min_cycle;Max_cycle;Signal;HPM_P1;HPM_P2
2023/10/04 00:00:45;;;;;;;7.00;2.87;;;;;8.90;95263.00;;;;7400091;19;20607;-81
2023/10/04 00:03:19;;;;;;;10.77;3.10;;;;;8.80;95266.00;;;;7396465;19;20248;-81
2023/10/04 00:05:55;;;;;;;11.57;2.97;;;;;8.70;95269.00;;;;7399279;19;20509;-80
2023/10/04 00:08:25;;;;;;;7.07;3.77;;;;;8.70;95280.00;;;;7397528;19;20477;-81
2023/10/04 00:11:01;;;;;;;7.70;2.87;;;;;8.90;95271.00;;;;7396625;19;20132;-81
2023/10/04 00:13:43;;;;;;;5.27;2.80;;;;;9.10;95279.00;;;;7398204;19;20149;-80
2023/10/04 00:16:18;;;;;;;5.37;2.80;;;;;8.90;95269.00;;;;7399966;19;20620;-79
2023/10/04 00:18:46;;;;;;;10.47;3.07;;;;;8.90;95274.00;;;;7397559;19;20640;-81
2023/10/04 00:21:21;;;;;;;5.60;3.20;;;;;8.90;95273.00;;;;7399188;19;20129;-79
2023/10/04 00:23:59;;;;;;;6.10;2.97;;;;;8.90;95268.00;;;;7397436;19;20217;-80
2023/10/04 00:26:27;;;;;;;4.77;2.80;;;;;8.90;95277.00;;;;7394906;19;20140;-81
2023/10/04 00:29:06;;;;;;;6.90;2.90;;;;;8.70;95282.00;;;;7399745;19;20156;-81
2023/10/04 00:31:42;;;;;;;5.77;2.83;;;;;8.40;95277.00;;;;7398989;19;20188;-80
2023/10/04 00:34:17;;;;;;;6.37;2.67;;;;;8.30;95272.00;;;;7399635;19;20301;-80
2023/10/04 00:36:45;;;;;;;6.00;2.37;;;;;8.20;95266.00;;;;7399747;19;20145;-80
2023/10/04 00:39:19;;;;;;;7.67;2.40;;;;;8.10;95266.00;;;;7403886;19;20143;-80
2023/10/04 00:41:55;;;;;;;227.67;12.27;;;;;8.00;95266.00;;;;7403200;19;20623;-80
2023/10/04 00:44:34;;;;;;;310.43;12.57;;;;;7.90;95259.00;;;;7400461;19;20152;-80
2023/10/04 00:47:16;;;;;;;16.67;2.70;;;;;7.90;95271.00;;;;7403582;19;20125;-80
2023/10/04 00:49:45;;;;;;;5.63;2.17;;;;;7.70;95265.00;;;;7403019;19;20164;-80
2023/10/04 00:52:20;;;;;;;7.53;2.60;;;;;7.70;95267.00;;;;7404121;19;20142;-80
2023/10/04 00:54:55;;;;;;;4.93;2.50;;;;;7.80;95271.00;;;;7400695;19;20631;-80
2023/10/04 00:57:23;;;;;;;6.83;2.50;;;;;7.80;95266.00;;;;7403190;19;20153;-80
2023/10/04 00:59:52;;;;;;;5.67;2.87;;;;;8.00;95263.00;;;;7401892;19;20137;-80
2023/10/04 01:02:28;;;;;;;6.67;2.43;;;;;8.00;95261.00;;;;7403834;19;20167;-78
2023/10/04 01:05:07;;;;;;;5.93;2.77;;;;;7.90;95261.00;;;;7399275;19;20156;-78
2023/10/04 01:07:44;;;;;;;6.03;2.80;;;;;7.90;95266.00;;;;7396996;19;20156;-78
2023/10/04 01:10:24;;;;;;;10.57;3.40;;;;;7.90;95268.00;;;;7395412;19;20152;-78
2023/10/04 01:12:52;;;;;;;7.17;2.87;;;;;7.80;95259.00;;;;7397176;19;20128;-78
2023/10/04 01:15:36;;;;;;;7.17;2.97;;;;;7.90;95255.00;;;;7396368;19;20136;-77
2023/10/04 01:18:11;;;;;;;4.90;2.53;;;;;7.80;95251.00;;;;7396692;19;20610;-77
2023/10/04 01:20:52;;;;;;;6.33;3.37;;;;;7.80;95258.00;;;;7396256;19;20129;-78
2023/10/04 01:23:28;;;;;;;10.93;3.17;;;;;7.70;95258.00;;;;7397181;19;20628;-78
2023/10/04 01:25:57;;;;;;;6.70;2.60;;;;;7.60;95256.00;;;;7396654;19;20137;-77
2023/10/04 01:28:31;;;;;;;6.40;3.07;;;;;7.80;95260.00;;;;7396702;19;20153;-78
2023/10/04 01:31:05;;;;;;;5.53;3.23;;;;;7.90;95268.00;;;;7397495;19;20163;-77
2023/10/04 01:33:41;;;;;;;10.17;3.37;;;;;7.90;95266.00;;;;7396573;19;20117;-78
2023/10/04 01:36:09;;;;;;;6.97;3.23;;;;;7.80;95255.00;;;;7396425;19;20137;-77
2023/10/04 01:38:47;;;;;;;6.30;2.83;;;;;7.80;95261.00;;;;7401465;19;20141;-77
2023/10/04 01:41:15;;;;;;;8.57;3.00;;;;;7.80;95260.00;;;;7403834;19;20539;-77
2023/10/04 01:43:50;;;;;;;5.73;3.03;;;;;7.90;95256.00;;;;7402230;19;20600;-77
2023/10/04 01:46:19;;;;;;;7.40;3.43;;;;;8.00;95249.00;;;;7405030;19;20152;-77
2023/10/04 01:48:56;;;;;;;7.63;3.10;;;;;7.90;95256.00;;;;7401957;19;20140;-78
2023/10/04 01:51:27;;;;;;;8.07;3.10;;;;;7.90;95253.00;;;;7402411;19;21055;-77
2023/10/04 01:54:04;;;;;;;6.43;3.23;;;;;7.80;95251.00;;;;7402948;19;20144;-77
2023/10/04 01:56:32;;;;;;;8.13;2.90;;;;;7.70;95255.00;;;;7401807;19;20168;-77
2023/10/04 01:59:07;;;;;;;8.57;4.07;;;;;7.60;95256.00;;;;7402922;19;20146;-78
2023/10/04 02:01:41;;;;;;;6.50;3.00;;;;;7.60;95250.00;;;;7401798;19;20148;-78
2023/10/04 02:04:19;;;;;;;6.40;3.37;;;;;7.70;95259.00;;;;7399722;19;20619;-79
2023/10/04 02:06:48;;;;;;;6.67;3.03;;;;;7.60;95242.00;;;;7400600;19;20137;-77
2023/10/04 02:09:23;;;;;;;9.40;3.53;;;;;7.60;95250.00;;;;7400900;19;20145;-77
2023/10/04 02:11:54;;;;;;;8.10;3.10;;;;;7.50;95251.00;;;;7402814;19;20129;-75
2023/10/04 02:14:22;;;;;;;9.13;3.27;;;;;7.50;95249.00;;;;7399656;19;20149;-76
2023/10/04 02:16:56;;;;;;;7.37;3.10;;;;;7.50;95250.00;;;;7402882;19;20196;-75
2023/10/04 02:19:25;;;;;;;15.23;3.77;;;;;7.50;95246.00;;;;7400292;19;20149;-76
2023/10/04 02:22:00;;;;;;;8.80;3.07;;;;;7.60;95253.00;;;;7402238;19;20148;-76
2023/10/04 02:24:34;;;;;;;11.30;3.40;;;;;7.50;95256.00;;;;7400978;19;20129;-75
2023/10/04 02:27:02;;;;;;;9.07;3.77;;;;;7.50;95265.00;;;;7400170;19;20221;-75
2023/10/04 02:29:38;;;;;;;7.90;3.63;;;;;7.50;95266.00;;;;7401309;19;20636;-76
2023/10/04 02:32:13;;;;;;;10.20;3.33;;;;;7.40;95267.00;;;;7400834;19;20620;-77
2023/10/04 02:34:50;;;;;;;7.43;3.47;;;;;7.40;95266.00;;;;7401807;19;20216;-75
2023/10/04 02:37:19;;;;;;;11.43;3.27;;;;;7.40;95263.00;;;;7399761;19;20141;-76
2023/10/04 02:39:54;;;;;;;12.13;3.57;;;;;7.30;95264.00;;;;7402833;19;20139;-76
2023/10/04 02:42:34;;;;;;;8.23;3.10;;;;;7.20;95267.00;;;;7400684;19;20200;-75
2023/10/04 02:45:18;;;;;;;8.53;3.27;;;;;7.30;95264.00;;;;7399038;19;20196;-75
2023/10/04 02:47:53;;;;;;;7.67;2.90;;;;;7.30;95277.00;;;;7400563;19;20137;-78
2023/10/04 02:50:28;;;;;;;9.17;3.37;;;;;7.30;95270.00;;;;7401167;19;20139;-76
2023/10/04 02:53:04;;;;;;;17.90;3.37;;;;;7.30;95275.00;;;;7399934;19;20151;-75
2023/10/04 02:55:40;;;;;;;6.00;3.17;;;;;7.30;95279.00;;;;7399563;19;20180;-75
2023/10/04 02:58:09;;;;;;;9.53;3.47;;;;;7.30;95277.00;;;;7401112;19;20149;-75
2023/10/04 03:00:45;;;;;;;10.53;3.20;;;;;7.30;95285.00;;;;7401593;19;20460;-76
2023/10/04 03:03:25;;;;;;;7.90;3.70;;;;;7.40;95278.00;;;;7399185;19;20137;-76
2023/10/04 03:05:59;;;;;;;7.73;3.50;;;;;7.30;95267.00;;;;7401002;19;20136;-75
2023/10/04 03:08:35;;;;;;;7.97;3.27;;;;;7.40;95271.00;;;;7402478;19;20469;-75
2023/10/04 03:11:11;;;;;;;9.40;3.13;;;;;7.40;95261.00;;;;7400353;19;20151;-76
2023/10/04 03:13:40;;;;;;;8.60;3.77;;;;;7.50;95261.00;;;;7398279;19;20499;-76
2023/10/04 03:16:25;;;;;;;8.90;3.57;;;;;7.30;95274.00;;;;7401519;19;20138;-75
2023/10/04 03:18:54;;;;;;;7.20;3.10;;;;;7.20;95272.00;;;;7400617;19;20129;-75
2023/10/04 03:21:31;;;;;;;7.50;3.13;;;;;7.10;95270.00;;;;7400120;19;20595;-77
2023/10/04 03:24:05;;;;;;;9.27;3.13;;;;;7.10;95271.00;;;;7407732;19;20141;-82
2023/10/04 03:26:44;;;;;;;5.60;3.13;;;;;7.10;95266.00;;;;7411651;19;20155;-80
2023/10/04 03:29:14;;;;;;;8.03;3.23;;;;;7.00;95278.00;;;;7408456;19;20604;-80
2023/10/04 03:31:51;;;;;;;10.30;3.60;;;;;7.10;95272.00;;;;7409304;19;20128;-81
2023/10/04 03:34:22;;;;;;;7.63;2.70;;;;;7.00;95267.00;;;;7407766;19;20750;-81
2023/10/04 03:37:08;;;;;;;13.00;3.20;;;;;7.10;95265.00;;;;7407410;19;20145;-80
2023/10/04 03:39:37;;;;;;;10.67;3.80;;;;;7.20;95270.00;;;;7408777;19;20153;-82
2023/10/04 03:42:11;;;;;;;10.17;3.57;;;;;7.10;95273.00;;;;7408899;19;20140;-81
2023/10/04 03:44:39;;;;;;;8.10;3.70;;;;;7.00;95276.00;;;;7407295;19;20150;-81
2023/10/04 03:47:09;;;;;;;10.97;3.47;;;;;7.00;95275.00;;;;7408812;19;20157;-81
2023/10/04 03:49:43;;;;;;;6.83;3.00;;;;;7.20;95265.00;;;;7406062;19;20128;-81
2023/10/04 03:52:12;;;;;;;8.00;3.47;;;;;7.10;95265.00;;;;7409015;19;20141;-81
2023/10/04 03:54:48;;;;;;;6.73;3.50;;;;;7.20;95270.00;;;;7406796;19;20935;-81
2023/10/04 03:57:16;;;;;;;10.43;3.30;;;;;7.20;95268.00;;;;7407749;19;20477;-81
2023/10/04 03:59:51;;;;;;;11.83;3.67;;;;;7.10;95274.00;;;;7409972;19;20128;-82
2023/10/04 04:02:21;;;;;;;12.40;3.07;;;;;7.20;95284.00;;;;7403527;19;20170;-82
2023/10/04 04:04:49;;;;;;;11.77;3.57;;;;;7.20;95280.00;;;;7412634;19;20612;-81
2023/10/04 04:07:26;;;;;;;8.07;3.30;;;;;7.20;95273.00;;;;7414190;19;20135;-81
2023/10/04 04:09:55;;;;;;;7.03;3.47;;;;;7.30;95275.00;;;;7412036;19;20588;-82
2023/10/04 04:12:34;;;;;;;13.07;4.03;;;;;7.20;95280.00;;;;7420541;19;20137;-82
2023/10/04 04:15:17;;;;;;;10.13;3.90;;;;;7.10;95267.00;;;;7424919;19;20160;-82
2023/10/04 04:17:55;;;;;;;5.60;3.37;;;;;7.20;95269.00;;;;7416480;19;20178;-80
2023/10/04 04:20:23;;;;;;;8.30;3.50;;;;;7.20;95270.00;;;;7420008;19;20128;-80
2023/10/04 04:22:58;;;;;;;8.33;3.67;;;;;7.10;95270.00;;;;7423159;19;20136;-79
2023/10/04 04:28:18;;;;;;;10.03;3.30;;;;;7.10;95286.00;;;;7410527;19;20600;-83
2023/10/04 04:30:58;;;;;;;12.83;3.70;;;;;7.10;95273.00;;;;7415600;19;20168;-78
2023/10/04 04:33:28;;;;;;;9.60;4.40;;;;;7.20;95274.00;;;;7397840;19;20474;-77
2023/10/04 04:36:17;;;;;;;9.20;4.10;;;;;7.30;95268.00;;;;7386499;19;20159;-77
2023/10/04 04:38:53;;;;;;;9.40;3.57;;;;;7.20;95273.00;;;;7385012;19;20152;-75
2023/10/04 04:41:35;;;;;;;7.47;3.60;;;;;7.20;95280.00;;;;7386910;19;20513;-80
2023/10/04 04:44:20;;;;;;;8.47;3.53;;;;;7.10;95272.00;;;;7385845;19;20152;-78
2023/10/04 04:46:48;;;;;;;7.37;3.43;;;;;7.20;95279.00;;;;7385465;19;20160;-78
2023/10/04 04:49:25;;;;;;;10.20;3.93;;;;;7.30;95273.00;;;;7386051;19;20140;-77
2023/10/04 04:51:53;;;;;;;14.80;3.40;;;;;7.30;95270.00;;;;7387161;19;20162;-77
2023/10/04 04:54:27;;;;;;;5.80;3.27;;;;;7.40;95274.00;;;;7386093;19;20588;-77
2023/10/04 04:56:54;;;;;;;6.87;3.50;;;;;7.30;95271.00;;;;7385641;19;20149;-78
2023/10/04 04:59:29;;;;;;;11.10;3.63;;;;;7.30;95265.00;;;;7385487;19;20152;-79
2023/10/04 05:01:57;;;;;;;6.90;3.30;;;;;7.30;95273.00;;;;7385032;19;20504;-77
2023/10/04 05:04:31;;;;;;;10.33;3.73;;;;;7.40;95283.00;;;;7386930;19;20629;-77
2023/10/04 05:07:09;;;;;;;11.37;3.13;;;;;7.40;95277.00;;;;7384475;19;20215;-79
2023/10/04 05:09:44;;;;;;;12.37;3.30;;;;;7.40;95272.00;;;;7385814;19;20156;-77
2023/10/04 05:12:13;;;;;;;6.93;3.30;;;;;7.50;95269.00;;;;7388150;19;20608;-77
2023/10/04 05:14:50;;;;;;;8.40;3.30;;;;;7.40;95271.00;;;;7393445;19;20459;-74
2023/10/04 05:17:30;;;;;;;8.00;3.70;;;;;7.30;95269.00;;;;7391432;19;20145;-74
2023/10/04 05:20:13;;;;;;;6.20;2.93;;;;;7.30;95265.00;;;;7392052;19;20172;-73
2023/10/04 05:22:52;;;;;;;7.63;3.17;;;;;7.20;95270.00;;;;7392176;19;20523;-75
2023/10/04 05:25:20;;;;;;;12.33;3.00;;;;;7.40;95272.00;;;;7391143;19;20788;-74
2023/10/04 05:28:15;;;;;;;8.80;3.40;;;;;7.30;95272.00;;;;7393108;19;20156;-75
2023/10/04 05:30:51;;;;;;;8.17;3.50;;;;;7.40;95277.00;;;;7391549;19;20156;-74
2023/10/04 05:33:26;;;;;;;7.67;3.33;;;;;7.30;95275.00;;;;7392680;19;20133;-75
2023/10/04 05:35:56;;;;;;;6.90;3.13;;;;;7.20;95272.00;;;;7394198;19;20462;-74
2023/10/04 05:38:32;;;;;;;9.33;2.93;;;;;7.20;95273.00;;;;7391945;19;20149;-74
2023/10/04 05:41:01;;;;;;;5.97;3.30;;;;;7.10;95279.00;;;;7392091;19;20141;-75
2023/10/04 05:43:36;;;;;;;16.33;3.00;;;;;7.20;95281.00;;;;7391374;19;20637;-76
2023/10/04 05:46:06;;;;;;;8.87;3.20;;;;;7.30;95277.00;;;;7390427;19;20168;-76
2023/10/04 05:48:41;;;;;;;7.13;2.93;;;;;7.30;95279.00;;;;7390577;19;20317;-76
2023/10/04 05:51:17;;;;;;;6.77;3.23;;;;;7.20;95282.00;;;;7391076;19;20216;-75
2023/10/04 05:53:51;;;;;;;4.80;3.07;;;;;7.30;95275.00;;;;7390467;19;20146;-76
2023/10/04 05:56:25;;;;;;;8.60;2.80;;;;;7.40;95278.00;;;;7389959;19;20148;-76
2023/10/04 05:58:54;;;;;;;7.87;3.30;;;;;7.30;95286.00;;;;7390870;19;20190;-77
2023/10/04 06:01:22;;;;;;;7.23;3.00;;;;;7.40;95281.00;;;;7389000;19;20157;-75
2023/10/04 06:03:59;;;;;;;5.70;3.00;;;;;7.50;95274.00;;;;7393752;19;20152;-76
2023/10/04 06:06:27;;;;;;;8.30;3.30;;;;;7.50;95278.00;;;;7391180;19;20915;-78
2023/10/04 06:09:03;;;;;;;7.73;3.13;;;;;7.60;95290.00;;;;7389120;19;20146;-77
2023/10/04 06:11:32;;;;;;;9.93;3.47;;;;;7.80;95288.00;;;;7389414;19;20147;-77
2023/10/04 06:14:01;;;;;;;5.90;3.27;;;;;8.00;95284.00;;;;7391834;19;20492;-77
2023/10/04 06:16:35;;;;;;;8.47;3.43;;;;;8.20;95291.00;;;;7390123;19;20628;-78
2023/10/04 06:19:13;;;;;;;6.73;2.73;;;;;8.20;95293.00;;;;7390424;19;20228;-76
2023/10/04 06:21:56;;;;;;;8.87;3.17;;;;;8.30;95299.00;;;;7390845;19;20625;-76
2023/10/04 06:24:31;;;;;;;7.77;3.03;;;;;8.50;95301.00;;;;7387330;19;20144;-77
2023/10/04 06:27:05;;;;;;;10.13;3.00;;;;;8.70;95293.00;;;;7388863;19;20592;-76
2023/10/04 06:29:47;;;;;;;12.47;3.40;;;;;9.00;95304.00;;;;7390476;19;20599;-77
2023/10/04 06:32:18;;;;;;;13.23;3.00;;;;;9.10;95300.00;;;;7389740;19;20727;-77
2023/10/04 06:34:53;;;;;;;9.83;3.03;;;;;9.30;95307.00;;;;7388824;19;20211;-77
2023/10/04 06:37:29;;;;;;;9.70;3.60;;;;;9.50;95300.00;;;;7392575;19;20523;-78
2023/10/04 06:40:11;;;;;;;8.37;2.83;;;;;9.50;95304.00;;;;7389943;19;20140;-78
2023/10/04 06:42:48;;;;;;;9.37;3.40;;;;;9.50;95315.00;;;;7389837;19;20155;-77
2023/10/04 06:45:26;;;;;;;8.23;2.97;;;;;9.60;95316.00;;;;7388847;19;20215;-79
2023/10/04 06:48:03;;;;;;;7.07;3.10;;;;;9.80;95324.00;;;;7389576;19;20180;-78
2023/10/04 06:50:38;;;;;;;6.13;2.97;;;;;9.90;95316.00;;;;7390115;19;20481;-77
2023/10/04 06:53:12;;;;;;;7.23;3.17;;;;;10.10;95325.00;;;;7391744;19;20131;-80
2023/10/04 06:55:46;;;;;;;8.60;3.13;;;;;10.10;95324.00;;;;7389019;19;20509;-83
2023/10/04 06:58:15;;;;;;;12.07;3.27;;;;;10.30;95319.00;;;;7390815;19;20126;-81
2023/10/04 07:00:50;;;;;;;6.33;3.10;;;;;10.30;95297.00;;;;7389025;19;20583;-82
2023/10/04 07:03:27;;;;;;;9.30;3.00;;;;;10.40;95323.00;;;;7389632;19;20179;-80
2023/10/04 07:06:02;;;;;;;12.20;3.30;;;;;10.50;95330.00;;;;7388295;19;20144;-81
2023/10/04 07:08:37;;;;;;;11.73;3.00;;;;;10.50;95333.00;;;;7389834;19;20211;-80
2023/10/04 07:11:12;;;;;;;9.07;2.90;;;;;10.60;95325.00;;;;7389775;19;20140;-80
2023/10/04 07:13:47;;;;;;;6.63;3.00;;;;;10.90;95320.00;;;;7390379;19;20550;-81
2023/10/04 07:16:24;;;;;;;7.78;2.90;;;;;10.90;95326.00;;;;7392949;19;20258;-79
2023/10/04 07:18:51;;;;;;;10.05;2.90;;;;;11.10;95337.00;;;;7389883;19;20145;-80
2023/10/04 07:21:28;;;;;;;7.65;2.40;;;;;11.10;95315.00;;;;7390648;19;20156;-81
2023/10/04 07:23:56;;;;;;;8.47;2.70;;;;;11.10;95331.00;;;;7390034;19;20125;-80
2023/10/04 07:26:38;;;;;;;8.63;2.60;;;;;11.40;95327.00;;;;7388415;19;20140;-80
2023/10/04 07:29:12;;;;;;;6.85;2.60;;;;;11.60;95331.00;;;;7390035;19;20192;-82
2023/10/04 07:31:51;;;;;;;7.78;2.70;;;;;11.80;95341.00;;;;7388397;19;20159;-80
2023/10/04 07:34:28;;;;;;;10.93;2.80;;;;;11.80;95339.00;;;;7387452;19;20178;-80
2023/10/04 07:36:56;;;;;;;5.13;2.20;;;;;12.00;95346.00;;;;7386164;19;20143;-78
2023/10/04 07:39:32;;;;;;;8.38;2.45;;;;;11.80;95340.00;;;;7385943;19;20971;-79
2023/10/04 07:42:07;;;;;;;5.93;2.28;;;;;12.00;95352.00;;;;7387494;19;20151;-82
2023/10/04 07:44:36;;;;;;;5.53;2.20;;;;;12.10;95349.00;;;;7388883;19;20449;-80
2023/10/04 07:47:11;;;;;;;6.88;2.72;;;;;12.20;95352.00;;;;7385984;19;20663;-80
2023/10/04 07:49:49;;;;;;;4.40;2.05;;;;;12.10;95348.00;;;;7387173;19;20157;-80
2023/10/04 07:52:23;;;;;;;7.93;2.50;;;;;12.10;95349.00;;;;7388178;19;20140;-80
2023/10/04 07:54:59;;;;;;;5.95;2.05;;;;;12.10;95357.00;;;;7387412;19;20152;-79
2023/10/04 07:57:36;;;;;;;5.97;1.80;;;;;12.30;95356.00;;;;7388356;19;20144;-78
2023/10/04 08:00:14;;;;;;;4.45;2.10;;;;;12.10;95355.00;;;;7385637;19;20511;-78
2023/10/04 08:02:50;;;;;;;7.32;2.10;;;;;12.60;95347.00;;;;7382837;19;20545;-75
2023/10/04 08:05:31;;;;;;;8.95;2.00;;;;;12.60;95351.00;;;;7385244;19;20153;-76
2023/10/04 08:08:07;;;;;;;5.57;2.13;;;;;12.90;95336.00;;;;7385782;19;20147;-76
2023/10/04 08:10:42;;;;;;;9.57;1.77;;;;;12.70;95345.00;;;;7384987;19;20516;-77
2023/10/04 08:13:17;;;;;;;9.43;2.20;;;;;12.40;95336.00;;;;7385267;19;20148;-74
2023/10/04 08:15:46;;;;;;;5.30;1.75;;;;;12.60;95348.00;;;;7385880;19;20152;-75
2023/10/04 08:18:16;;;;;;;4.50;1.95;;;;;12.90;95342.00;;;;7384228;19;20129;-75
2023/10/04 08:20:52;;;;;;;4.63;2.00;;;;;13.30;95344.00;;;;7383759;19;20173;-75
2023/10/04 08:23:26;;;;;;;6.38;1.92;;;;;13.30;95345.00;;;;7384442;19;20136;-76
2023/10/04 08:25:55;;;;;;;7.85;1.80;;;;;13.10;95341.00;;;;7385771;19;20243;-75
2023/10/04 08:28:36;;;;;;;6.07;2.05;;;;;13.30;95342.00;;;;7383001;19;20163;-75
2023/10/04 08:31:16;;;;;;;4.32;1.73;;;;;13.10;95338.00;;;;7384964;19;20153;-75
2023/10/04 08:33:51;;;;;;;5.43;1.80;;;;;13.70;95335.00;;;;7386978;19;20137;-75
2023/10/04 08:36:19;;;;;;;8.52;1.85;;;;;13.90;95345.00;;;;7384689;19;20192;-76
2023/10/04 08:38:53;;;;;;;6.60;1.83;;;;;14.20;95343.00;;;;7384764;19;20144;-76
2023/10/04 08:41:28;;;;;;;6.57;1.80;;;;;14.20;95340.00;;;;7385627;19;20587;-76
2023/10/04 08:44:06;;;;;;;4.65;1.55;;;;;14.50;95353.00;;;;7384612;19;20136;-77
2023/10/04 08:46:43;;;;;;;5.00;1.85;;;;;13.60;95344.00;;;;7382114;19;20145;-76
2023/10/04 08:49:22;;;;;;;3.58;1.55;;;;;14.20;95337.00;;;;7384992;19;20152;-77
2023/10/04 08:52:07;;;;;;;3.22;1.60;;;;;13.80;95347.00;;;;7385684;19;20177;-77
2023/10/04 08:54:47;;;;;;;4.13;1.83;;;;;13.80;95340.00;;;;7385795;19;20201;-75
2023/10/04 08:57:21;;;;;;;7.75;1.67;;;;;14.20;95341.00;;;;7385157;19;20149;-76
2023/10/04 08:59:58;;;;;;;8.25;1.88;;;;;14.40;95346.00;;;;7385753;19;20149;-76
2023/10/04 09:02:35;;;;;;;5.50;2.28;;;;;14.30;95341.00;;;;7385731;19;20632;-75
2023/10/04 09:05:13;;;;;;;4.75;1.55;;;;;14.70;95331.00;;;;7385870;19;20132;-76
2023/10/04 09:07:54;;;;;;;8.77;2.22;;;;;14.60;95322.00;;;;7383584;19;20156;-75
2023/10/04 09:10:23;;;;;;;7.07;1.83;;;;;14.20;95322.00;;;;7382852;19;20139;-75
2023/10/04 09:13:03;;;;;;;4.10;1.70;;;;;14.20;95335.00;;;;7384656;19;20148;-75
2023/10/04 09:15:39;;;;;;;8.57;1.80;;;;;14.50;95324.00;;;;7382603;19;20181;-75
2023/10/04 09:18:07;;;;;;;6.03;2.00;;;;;14.50;95321.00;;;;7383068;19;20167;-78
2023/10/04 09:20:36;;;;;;;4.03;1.60;;;;;14.70;95315.00;;;;7384320;19;20514;-75
2023/10/04 09:23:22;;;;;;;6.68;1.92;;;;;15.40;95320.00;;;;7383666;19;20151;-77
2023/10/04 09:25:59;;;;;;;4.60;1.63;;;;;15.40;95331.00;;;;7383547;19;20145;-75
2023/10/04 09:28:40;;;;;;;4.82;2.50;;;;;15.20;95317.00;;;;7383160;19;20647;-76
2023/10/04 09:31:12;;;;;;;5.22;1.85;;;;;15.00;95326.00;;;;7383044;19;20152;-75
2023/10/04 09:33:47;;;;;;;2.75;1.80;;;;;15.00;95315.00;;;;7382597;19;20136;-75
2023/10/04 09:36:34;;;;;;;5.20;2.10;;;;;15.30;95316.00;;;;7383481;19;20494;-75
2023/10/04 09:39:13;;;;;;;4.45;1.60;;;;;15.70;95309.00;;;;7383029;19;20158;-75
2023/10/04 09:41:48;;;;;;;9.48;2.10;;;;;15.10;95314.00;;;;7382840;19;20132;-74
2023/10/04 09:44:25;;;;;;;2.53;1.50;;;;;14.80;95303.00;;;;7382466;19;20146;-76
2023/10/04 09:47:02;;;;;;;2.80;1.58;;;;;15.20;95314.00;;;;7381955;19;20144;-76
2023/10/04 09:49:47;;;;;;;2.58;1.30;;;;;15.60;95304.00;;;;7383753;19;20606;-74
2023/10/04 09:52:22;;;;;;;3.70;1.65;;;;;15.70;95291.00;;;;7383363;19;20129;-76
2023/10/04 09:54:53;;;;;;;5.75;1.92;;;;;16.40;95299.00;;;;7380794;19;20529;-76
2023/10/04 09:57:31;;;;;;;9.07;2.38;;;;;16.00;95303.00;;;;7382088;19;20149;-74
2023/10/04 10:00:00;;;;;;;5.55;1.65;;;;;16.30;95296.00;;;;7388307;19;20164;-75
2023/10/04 10:02:36;;;;;;;3.22;1.75;;;;;15.80;95304.00;;;;7387414;19;20187;-75
2023/10/04 10:05:09;;;;;;;7.00;1.77;;;;;15.80;95304.00;;;;7387662;19;20612;-74
2023/10/04 10:07:44;;;;;;;5.97;1.70;;;;;15.90;95307.00;;;;7388493;19;20181;-75
2023/10/04 10:10:21;;;;;;;2.85;1.65;;;;;16.20;95297.00;;;;7388487;19;20270;-76
2023/10/04 10:12:57;;;;;;;3.40;1.77;;;;;16.70;95303.00;;;;7387425;19;20149;-74
2023/10/04 10:15:25;;;;;;;3.88;1.50;;;;;16.30;95299.00;;;;7388806;19;20506;-76
2023/10/04 10:18:00;;;;;;;4.20;1.85;;;;;16.40;95302.00;;;;7389338;19;20151;-74
2023/10/04 10:20:28;;;;;;;5.00;1.60;;;;;15.90;95306.00;;;;7388751;19;20133;-74
2023/10/04 10:23:05;;;;;;;5.55;1.60;;;;;16.20;95309.00;;;;7387629;19;20565;-78
2023/10/04 10:25:41;;;;;;;2.47;1.58;;;;;16.30;95308.00;;;;7388045;19;20648;-74
2023/10/04 10:28:22;;;;;;;4.05;1.45;;;;;15.90;95309.00;;;;7384530;19;20521;-75
2023/10/04 10:31:02;;;;;;;4.13;1.73;;;;;16.30;95303.00;;;;7386592;19;20668;-73
2023/10/04 10:33:30;;;;;;;6.05;2.10;;;;;16.80;95309.00;;;;7387721;19;20172;-74
2023/10/04 10:36:05;;;;;;;2.63;1.60;;;;;17.50;95304.00;;;;7387681;19;20472;-75
2023/10/04 10:38:43;;;;;;;6.47;1.60;;;;;17.60;95314.00;;;;7386218;19;20129;-75
2023/10/04 10:41:30;;;;;;;5.38;1.60;;;;;17.90;95304.00;;;;7387837;19;20153;-73
2023/10/04 10:44:19;;;;;;;4.22;1.55;;;;;16.90;95304.00;;;;7386452;19;20148;-74
2023/10/04 10:47:06;;;;;;;4.40;1.60;;;;;16.90;95293.00;;;;7386494;19;20167;-73
2023/10/04 10:49:39;;;;;;;6.70;1.88;;;;;17.30;95304.00;;;;7387338;19;20174;-72
2023/10/04 10:52:27;;;;;;;2.58;1.52;;;;;17.20;95291.00;;;;7387475;19;20139;-73
2023/10/04 10:54:58;;;;;;;2.60;1.55;;;;;17.90;95303.00;;;;7388228;19;20161;-73
2023/10/04 10:57:36;;;;;;;5.05;1.90;;;;;17.60;95289.00;;;;7388594;19;20537;-71
2023/10/04 11:02:53;;;;;;;4.43;1.52;;;;;18.00;95286.00;;;;7387451;19;20250;-73
2023/10/04 11:05:25;;;;;;;3.25;1.45;;;;;18.20;95282.00;;;;7388527;19;20600;-72
2023/10/04 11:08:06;;;;;;;4.28;1.88;;;;;17.90;95292.00;;;;7388746;19;20148;-73
2023/10/04 11:10:42;;;;;;;4.55;1.70;;;;;18.70;95287.00;;;;7385882;19;20133;-72
2023/10/04 11:13:14;;;;;;;4.45;1.75;;;;;19.00;95290.00;;;;7387094;19;20140;-74
2023/10/04 11:15:51;;;;;;;3.35;1.50;;;;;17.60;95292.00;;;;7389504;19;20588;-74
2023/10/04 11:18:28;;;;;;;3.88;1.67;;;;;17.70;95288.00;;;;7387155;19;20595;-72
2023/10/04 11:21:03;;;;;;;2.47;1.35;;;;;18.40;95284.00;;;;7386716;19;20141;-73
2023/10/04 11:23:38;;;;;;;3.58;1.40;;;;;17.80;95296.00;;;;7387464;19;20145;-76
2023/10/04 11:26:16;;;;;;;4.10;1.58;;;;;17.20;95312.00;;;;7388449;19;20172;-72
2023/10/04 11:28:57;;;;;;;5.72;1.60;;;;;16.70;95300.00;;;;7386648;19;20533;-73
2023/10/04 11:31:25;;;;;;;5.93;1.63;;;;;16.20;95303.00;;;;7387578;19;20149;-73
2023/10/04 11:34:12;;;;;;;3.50;1.70;;;;;16.10;95313.00;;;;7387845;19;20659;-73
2023/10/04 11:36:47;;;;;;;2.53;1.70;;;;;15.50;95310.00;;;;7387462;19;20144;-72
2023/10/04 11:39:23;;;;;;;4.32;1.63;;;;;16.50;95284.00;;;;7386193;19;20133;-73
2023/10/04 11:41:58;;;;;;;2.80;1.67;;;;;17.80;95278.00;;;;7386726;19;20667;-74
2023/10/04 11:44:27;;;;;;;5.13;1.55;;;;;18.50;95256.00;;;;7388355;19;20524;-73
2023/10/04 11:47:04;;;;;;;3.08;1.67;;;;;20.00;95256.00;;;;7386615;19;20616;-73
2023/10/04 11:49:33;;;;;;;6.20;1.77;;;;;20.30;95248.00;;;;7387735;19;20224;-74
2023/10/04 11:52:08;;;;;;;4.15;1.80;;;;;20.00;95250.00;;;;7387939;19;20516;-75
2023/10/04 11:54:40;;;;;;;3.03;1.80;;;;;19.90;95238.00;;;;7386505;19;20512;-72
2023/10/04 11:57:26;;;;;;;3.42;1.50;;;;;21.10;95240.00;;;;7384995;19;20152;-74
2023/10/04 12:00:16;;;;;;;3.17;1.67;;;;;20.60;95254.00;;;;7386418;19;20167;-73
2023/10/04 12:02:52;;;;;;;3.17;1.50;;;;;18.20;95279.00;;;;7386762;19;20197;-74
2023/10/04 12:05:27;;;;;;;5.97;1.60;;;;;16.70;95283.00;;;;7388128;19;20151;-73
2023/10/04 12:08:05;;;;;;;2.42;1.40;;;;;16.40;95277.00;;;;7383030;19;20171;-73
2023/10/04 12:10:40;;;;;;;3.28;1.48;;;;;15.70;95277.00;;;;7376826;19;20207;-75
2023/10/04 12:13:08;;;;;;;3.22;1.58;;;;;15.90;95268.00;;;;7380790;19;20149;-73
2023/10/04 12:15:43;;;;;;;3.28;1.70;;;;;16.10;95237.00;;;;7380067;19;20152;-73
2023/10/04 12:18:15;;;;;;;5.40;1.33;;;;;17.50;95233.00;;;;7379692;19;20216;-73
2023/10/04 12:20:50;;;;;;;2.95;1.80;;;;;17.90;95234.00;;;;7379307;19;20580;-76
2023/10/04 12:23:19;;;;;;;3.90;1.80;;;;;18.70;95233.00;;;;7380189;19;20153;-74
2023/10/04 12:25:54;;;;;;;2.90;1.42;;;;;18.30;95227.00;;;;7383093;19;20129;-76
2023/10/04 12:28:37;;;;;;;2.85;1.50;;;18.40;99.90;19.30;95212.00;;;;7379349;19;20164;-75
2023/10/04 12:31:15;;;;;;;4.05;1.50;;;19.40;99.90;20.60;95213.00;;;;7395123;19;20140;-73
2023/10/04 12:33:46;;;;;;;1.85;1.50;;;20.10;99.90;20.50;95211.00;;;;7387643;19;20204;-74
2023/10/04 12:36:25;;;;;;;4.65;2.00;;;20.30;99.90;20.90;95183.00;;;;7382268;19;20148;-75
2023/10/04 12:38:52;;;;;;;3.72;1.63;;;20.60;99.90;20.80;95216.00;;;;7380852;19;20549;-74
2023/10/04 12:41:27;;;;;;;3.05;1.75;;;20.70;99.90;20.90;95183.00;;;;7380467;19;20144;-74
2023/10/04 12:43:54;;;;;;;4.97;1.88;;;20.50;99.90;20.90;95174.00;;;;7380872;19;20129;-78
2023/10/04 12:46:29;;;;;;;3.00;1.40;;;20.50;99.90;20.20;95207.00;;;;7379042;19;20151;-77
2023/10/04 12:49:03;;;;;;;2.65;1.63;;;20.20;99.90;20.50;95204.00;;;;7378699;19;20148;-81
2023/10/04 12:51:31;;;;;;;4.97;1.77;;;20.30;99.90;20.70;95207.00;;;;7379144;19;20151;-76
2023/10/04 12:54:07;;;;;;;4.43;1.58;;;20.20;99.90;19.40;95190.00;;;;7379653;19;20529;-78
2023/10/04 12:56:43;;;;;;;3.63;1.88;;;19.80;99.90;20.00;95195.00;;;;7379956;19;20140;-79
2023/10/04 12:59:20;;;;;;;4.63;1.50;;;19.90;99.90;20.20;95177.00;;;;7382026;19;20146;-76